Richmond, Maine
Current Conditions -  °F | °C
As of 6:53 PM on Tuesday 25 Nov 2014 (Local Time) from KIWI Reporting Station
Clear Clear  
Wind Chill: 10°   Ceiling: Unl
Heat Index: 10°   Visibility: 10mi
Dew Point: -2°   Wind: 7mph
Humidity: 43%   Direction: NA
Pressure: 29.95"   Gusts: NA
Location:  44.09°N, 69.8°W
Report Text: KIWI 252353Z AUTO VRB06KT 10SM CLR 10/M02 A2995 RMK AO2 SLP143 T01001022 10144 20094 53039
Loading
Personal Weather Stations






























Interactive Weather Map New forecast layout! Learn more

10-Day Weather Forecast

Advertisements
Track Severe Weather on mobile